createdAt,value
2023-03-04T00:02:17.130Z,4.15
2023-03-04T00:04:44.893Z,4.47
2023-03-04T00:07:16.660Z,4.30
2023-03-04T00:09:44.439Z,3.80
2023-03-04T00:12:12.251Z,4.20
2023-03-04T00:14:40.077Z,3.70
2023-03-04T00:17:07.967Z,3.60
2023-03-04T00:19:35.932Z,3.22
2023-03-04T00:22:04.196Z,3.85
2023-03-04T00:24:32.175Z,3.08
2023-03-04T00:27:00.247Z,3.97
2023-03-04T00:29:29.281Z,4.10
2023-03-04T00:31:57.179Z,3.40
2023-03-04T00:34:25.098Z,3.40
2023-03-04T00:36:52.914Z,3.13
2023-03-04T00:39:20.625Z,3.22
2023-03-04T00:41:48.413Z,4.07
2023-03-04T00:44:16.413Z,3.80
2023-03-04T00:46:44.167Z,3.65
2023-03-04T00:49:12.150Z,3.13
2023-03-04T00:51:39.936Z,3.58
2023-03-04T00:54:07.736Z,3.67
2023-03-04T00:56:35.561Z,3.33
2023-03-04T00:59:03.372Z,4.55
2023-03-04T01:01:31.341Z,4.53
2023-03-04T01:03:59.131Z,4.50
2023-03-04T01:06:26.962Z,3.67
2023-03-04T01:08:54.817Z,4.00
2023-03-04T01:11:22.584Z,2.90
2023-03-04T01:13:50.406Z,4.30
2023-03-04T01:16:18.169Z,3.20
2023-03-04T01:18:47.584Z,3.10
2023-03-04T01:21:15.369Z,4.00
2023-03-04T01:23:43.283Z,4.30
2023-03-04T01:26:11.056Z,3.20
2023-03-04T01:28:38.823Z,2.90
2023-03-04T01:31:06.581Z,3.03
2023-03-04T01:33:34.365Z,4.07
2023-03-04T01:36:02.082Z,3.50
2023-03-04T01:38:29.836Z,3.50
2023-03-04T01:40:57.695Z,3.60
2023-03-04T01:43:25.607Z,2.90
2023-03-04T01:45:53.448Z,3.17
2023-03-04T01:48:21.310Z,3.17
2023-03-04T01:50:49.063Z,2.88
2023-03-04T01:53:17.221Z,3.30
2023-03-04T01:55:44.962Z,3.65
2023-03-04T01:58:12.841Z,3.53
2023-03-04T02:00:40.648Z,2.75
2023-03-04T02:03:08.644Z,3.58
2023-03-04T02:05:36.410Z,2.60
2023-03-04T02:08:04.238Z,3.47
2023-03-04T02:10:33.616Z,3.85
2023-03-04T02:13:01.453Z,3.88
2023-03-04T02:15:29.447Z,2.78
2023-03-04T02:17:57.239Z,2.92
2023-03-04T02:20:25.009Z,2.72
2023-03-04T02:22:52.788Z,3.50
2023-03-04T02:25:32.404Z,2.97
2023-03-04T02:28:00.205Z,3.33
2023-03-04T02:30:27.943Z,3.30
2023-03-04T02:32:55.775Z,2.92
2023-03-04T02:35:23.572Z,3.00
2023-03-04T02:37:51.576Z,2.95
2023-03-04T02:40:19.325Z,3.83
2023-03-04T02:42:47.312Z,3.33
2023-03-04T02:45:15.082Z,2.60
2023-03-04T02:47:42.900Z,2.85
2023-03-04T02:50:10.711Z,2.70
2023-03-04T02:52:38.444Z,2.95
2023-03-04T02:55:06.317Z,2.60
2023-03-04T02:57:34.060Z,2.58
2023-03-04T03:00:01.929Z,2.92
2023-03-04T03:02:29.771Z,2.90
2023-03-04T03:04:57.685Z,3.63
2023-03-04T03:07:25.600Z,2.88
2023-03-04T03:09:53.380Z,3.75
2023-03-04T03:12:21.240Z,3.72
2023-03-04T03:14:49.029Z,2.97
2023-03-04T03:17:16.736Z,2.70
2023-03-04T03:19:44.723Z,2.88
2023-03-04T03:22:12.506Z,3.20
2023-03-04T03:24:40.255Z,3.38
2023-03-04T03:27:08.165Z,3.20
2023-03-04T03:29:36.001Z,3.15
2023-03-04T03:32:03.930Z,2.63
2023-03-04T03:34:31.708Z,3.25
2023-03-04T03:36:59.475Z,2.45
2023-03-04T03:39:27.225Z,2.58
2023-03-04T03:41:54.973Z,3.20
2023-03-04T03:44:22.796Z,3.17
2023-03-04T03:46:50.748Z,3.22
2023-03-04T03:49:18.507Z,3.20
2023-03-04T03:51:46.375Z,3.50
2023-03-04T03:54:14.166Z,3.15
2023-03-04T03:56:42.015Z,2.53
2023-03-04T03:59:09.833Z,3.35
2023-03-04T04:01:37.881Z,2.83
2023-03-04T04:04:05.972Z,2.92
2023-03-04T04:06:33.753Z,2.80
2023-03-04T04:09:01.516Z,2.70
2023-03-04T04:11:29.271Z,3.00
2023-03-04T04:13:57.078Z,2.90
2023-03-04T04:16:24.865Z,2.53
2023-03-04T04:18:52.682Z,2.40
2023-03-04T04:21:21.066Z,2.67
2023-03-04T04:23:48.863Z,2.90
2023-03-04T04:26:16.797Z,2.83
2023-03-04T04:28:44.587Z,3.53
2023-03-04T04:31:12.429Z,3.97
2023-03-04T04:35:10.238Z,3.10
2023-03-04T04:37:38.188Z,3.50
2023-03-04T04:40:06.387Z,2.78
2023-03-04T04:42:34.206Z,2.50
2023-03-04T04:45:02.452Z,2.60
2023-03-04T04:47:30.218Z,2.60
2023-03-04T04:49:58.121Z,2.53
2023-03-04T04:53:18.715Z,2.58
2023-03-04T04:55:46.534Z,2.60
2023-03-04T04:58:14.264Z,4.40
2023-03-04T05:00:42.106Z,3.30
2023-03-04T05:03:09.978Z,2.60
2023-03-04T05:05:37.746Z,2.90
2023-03-04T05:08:05.442Z,2.20
2023-03-04T05:10:33.165Z,3.10
2023-03-04T05:13:00.953Z,2.53
2023-03-04T05:15:32.013Z,2.40
2023-03-04T05:17:59.793Z,4.15
2023-03-04T05:22:34.924Z,2.50
2023-03-04T05:26:35.341Z,2.70
2023-03-04T05:29:03.240Z,3.33
2023-03-04T05:31:31.379Z,2.58
2023-03-04T05:34:00.564Z,3.65
2023-03-04T05:36:35.875Z,3.95
2023-03-04T05:39:03.579Z,3.00
2023-03-04T05:41:31.351Z,3.58
2023-03-04T05:43:59.194Z,3.97
2023-03-04T05:46:27.050Z,3.33
2023-03-04T05:48:54.842Z,4.40
2023-03-04T05:53:51.539Z,3.50
2023-03-04T05:56:19.349Z,4.47
2023-03-04T05:58:47.578Z,4.65
2023-03-04T06:01:15.591Z,3.05
2023-03-04T06:05:05.886Z,3.30
2023-03-04T06:07:33.656Z,3.03
2023-03-04T06:10:01.651Z,3.95
2023-03-04T06:12:29.869Z,3.65
2023-03-04T06:14:57.697Z,2.75
2023-03-04T06:17:25.461Z,3.63
2023-03-04T06:19:53.206Z,5.15
2023-03-04T06:22:20.971Z,5.57
2023-03-04T06:24:48.808Z,4.40
2023-03-04T06:27:16.891Z,5.85
2023-03-04T06:29:44.633Z,4.05
2023-03-04T06:32:12.442Z,3.97
2023-03-04T06:34:40.195Z,3.35
2023-03-04T06:37:08.015Z,4.20
2023-03-04T06:39:35.809Z,3.53
2023-03-04T06:42:03.779Z,5.40
2023-03-04T06:44:31.641Z,5.15
2023-03-04T06:46:59.950Z,4.03
2023-03-04T06:49:28.196Z,3.65
2023-03-04T06:51:56.054Z,4.25
2023-03-04T06:54:23.790Z,3.28
2023-03-04T06:56:51.606Z,5.05
2023-03-04T06:59:19.500Z,5.13
2023-03-04T07:01:47.441Z,4.20
2023-03-04T07:04:15.598Z,4.78
2023-03-04T07:06:43.661Z,3.45
2023-03-04T07:09:11.486Z,4.28
2023-03-04T07:11:39.305Z,3.60
2023-03-04T07:14:07.117Z,5.63
2023-03-04T07:20:51.207Z,4.65
2023-03-04T07:23:19.334Z,2.95
2023-03-04T07:25:47.091Z,2.08
2023-03-04T07:28:15.070Z,3.55
2023-03-04T07:30:42.899Z,4.60
2023-03-04T07:33:10.700Z,3.28
2023-03-04T07:35:38.680Z,3.70
2023-03-04T07:38:06.560Z,5.28
2023-03-04T07:40:34.297Z,3.67
2023-03-04T07:43:02.140Z,6.78
2023-03-04T07:47:21.057Z,6.88
2023-03-04T07:49:49.935Z,3.90
2023-03-04T07:52:17.792Z,2.80
2023-03-04T07:54:45.486Z,3.70
2023-03-04T07:57:13.212Z,1.90
2023-03-04T07:59:40.970Z,2.65
2023-03-04T08:02:09.848Z,3.50
2023-03-04T08:04:37.700Z,1.80
2023-03-04T08:07:05.407Z,1.70
2023-03-04T08:09:33.144Z,2.10
2023-03-04T08:12:00.849Z,1.70
2023-03-04T08:14:28.702Z,2.72
2023-03-04T08:16:56.424Z,2.95
2023-03-04T08:19:26.096Z,3.08
2023-03-04T08:21:53.903Z,1.98
2023-03-04T08:24:21.621Z,1.90
2023-03-04T08:26:49.799Z,2.38
2023-03-04T08:29:17.716Z,1.95
2023-03-04T08:31:48.682Z,2.33
2023-03-04T08:35:22.793Z,2.55
2023-03-04T08:37:50.801Z,1.70
2023-03-04T08:40:18.793Z,1.73
2023-03-04T08:42:46.544Z,2.92
2023-03-04T08:45:14.516Z,2.65
2023-03-04T08:47:42.487Z,2.20
2023-03-04T08:50:10.387Z,3.13
2023-03-04T08:52:38.163Z,2.33
2023-03-04T08:55:38.668Z,1.95
2023-03-04T08:58:06.417Z,2.83
2023-03-04T09:00:34.185Z,4.07
2023-03-04T09:03:02.052Z,3.75
2023-03-04T09:05:30.181Z,2.38
2023-03-04T09:07:58.035Z,3.13
2023-03-04T09:10:25.738Z,1.77
2023-03-04T09:12:53.708Z,2.35
2023-03-04T09:15:21.422Z,2.60
2023-03-04T09:17:49.163Z,2.47
2023-03-04T09:20:17.115Z,2.17
2023-03-04T09:22:44.862Z,3.05
2023-03-04T09:25:13.264Z,4.07
2023-03-04T09:27:41.030Z,2.47
2023-03-04T09:30:08.812Z,2.80
2023-03-04T09:32:36.841Z,2.50
2023-03-04T09:35:04.657Z,2.00
2023-03-04T09:37:32.504Z,3.25
2023-03-04T09:40:00.239Z,3.70
2023-03-04T09:42:29.425Z,2.03
2023-03-04T09:44:57.329Z,6.18
2023-03-04T09:47:25.131Z,2.97
2023-03-04T09:49:53.037Z,2.40
2023-03-04T09:52:20.880Z,2.25
2023-03-04T09:56:09.053Z,2.72
2023-03-04T09:58:36.777Z,3.33
2023-03-04T10:01:05.442Z,5.63
2023-03-04T10:03:33.336Z,6.25
2023-03-04T10:06:01.212Z,4.03
2023-03-04T10:08:29.254Z,4.53
2023-03-04T10:10:57.167Z,6.40
2023-03-04T10:13:25.074Z,3.85
2023-03-04T10:15:53.784Z,4.18
2023-03-04T10:18:23.077Z,4.30
2023-03-04T10:20:58.275Z,3.47
2023-03-04T10:23:26.067Z,3.72
2023-03-04T10:25:54.887Z,3.05
2023-03-04T10:29:43.215Z,5.22
2023-03-04T10:32:10.997Z,3.10
2023-03-04T10:37:12.935Z,3.25
2023-03-04T10:39:40.772Z,2.58
2023-03-04T10:42:08.760Z,3.50
2023-03-04T10:44:38.901Z,5.25
2023-03-04T10:47:06.649Z,5.35
2023-03-04T10:49:34.509Z,2.05
2023-03-04T10:52:02.599Z,3.20
2023-03-04T10:54:30.308Z,3.35
2023-03-04T10:56:58.103Z,3.50
2023-03-04T10:59:25.832Z,3.63
2023-03-04T11:01:53.630Z,2.13
2023-03-04T11:04:22.309Z,4.05
2023-03-04T11:06:50.190Z,3.72
2023-03-04T11:09:17.969Z,2.97
2023-03-04T11:11:46.128Z,13.45
2023-03-04T11:14:14.034Z,16.05
2023-03-04T11:16:41.912Z,11.93
2023-03-04T11:19:09.802Z,12.85
2023-03-04T11:21:40.004Z,13.23
2023-03-04T11:24:13.338Z,8.82
2023-03-04T11:26:50.024Z,11.45
2023-03-04T11:29:17.783Z,6.13
2023-03-04T11:31:45.549Z,9.73
2023-03-04T11:34:13.770Z,8.38
2023-03-04T11:36:41.517Z,8.70
2023-03-04T11:39:09.414Z,10.90
2023-03-04T11:41:37.175Z,8.88
2023-03-04T11:44:04.960Z,4.57
2023-03-04T11:46:33.186Z,8.93
2023-03-04T11:49:02.084Z,6.35
2023-03-04T11:51:29.883Z,6.53
2023-03-04T11:53:57.619Z,4.97
2023-03-04T11:56:25.414Z,4.63
2023-03-04T11:58:53.276Z,6.63
2023-03-04T12:01:21.104Z,4.75
2023-03-04T12:03:49.177Z,5.30
2023-03-04T12:06:17.224Z,9.13
2023-03-04T12:08:45.083Z,3.35
2023-03-04T12:11:12.854Z,3.65
2023-03-04T12:13:40.599Z,5.53
2023-03-04T12:16:08.326Z,6.05
2023-03-04T12:18:36.032Z,6.90
2023-03-04T12:21:03.751Z,4.22
2023-03-04T12:23:31.639Z,4.30
2023-03-04T12:25:59.357Z,4.93
2023-03-04T12:28:27.721Z,6.55
2023-03-04T12:30:55.630Z,4.78
2023-03-04T12:33:23.424Z,4.10
2023-03-04T12:35:51.242Z,2.67
2023-03-04T12:38:19.365Z,3.55
2023-03-04T12:40:47.101Z,4.20
2023-03-04T12:43:15.909Z,4.03
2023-03-04T12:45:43.735Z,4.60
2023-03-04T12:48:11.606Z,4.75
2023-03-04T12:50:39.277Z,3.22
2023-03-04T12:53:06.992Z,4.65
2023-03-04T12:55:34.946Z,3.83
2023-03-04T12:58:02.737Z,3.15
2023-03-04T13:00:30.773Z,5.82
2023-03-04T13:02:58.633Z,3.15
2023-03-04T13:05:26.479Z,2.33
2023-03-04T13:07:55.016Z,4.95
2023-03-04T13:10:25.616Z,3.47
2023-03-04T13:12:53.532Z,3.10
2023-03-04T13:15:21.623Z,4.18
2023-03-04T13:17:50.313Z,4.82
2023-03-04T13:20:18.053Z,4.75
2023-03-04T13:22:45.858Z,3.60
2023-03-04T13:25:14.131Z,3.40
2023-03-04T13:27:41.862Z,4.78
2023-03-04T13:30:09.626Z,2.65
2023-03-04T13:32:37.626Z,5.25
2023-03-04T13:35:05.458Z,1.98
2023-03-04T13:37:33.166Z,3.85
2023-03-04T13:40:00.956Z,2.80
2023-03-04T13:42:28.705Z,3.83
2023-03-04T13:44:56.751Z,3.95
2023-03-04T13:47:24.656Z,3.20
2023-03-04T13:49:52.724Z,3.45
2023-03-04T13:52:20.598Z,2.30
2023-03-04T13:54:48.503Z,2.35
2023-03-04T13:57:18.438Z,3.55
2023-03-04T13:59:46.466Z,2.35
2023-03-04T14:02:15.879Z,4.45
2023-03-04T14:04:43.701Z,3.28
2023-03-04T14:07:11.485Z,1.77
2023-03-04T14:09:39.276Z,2.60
2023-03-04T14:12:07.001Z,3.00
2023-03-04T14:14:37.514Z,3.72
2023-03-04T14:17:05.348Z,4.18
2023-03-04T14:19:33.484Z,3.03
2023-03-04T14:22:01.331Z,1.63
2023-03-04T14:24:30.851Z,3.15
2023-03-04T14:26:58.631Z,3.78
2023-03-04T14:29:26.483Z,2.60
2023-03-04T14:31:54.381Z,2.42
2023-03-04T14:34:22.200Z,2.25
2023-03-04T14:36:50.111Z,3.03
2023-03-04T14:39:17.985Z,2.10
2023-03-04T14:41:45.725Z,1.98
2023-03-04T14:44:13.677Z,2.35
2023-03-04T14:46:41.464Z,2.33
2023-03-04T14:49:09.306Z,1.67
2023-03-04T14:51:37.051Z,1.80
2023-03-04T14:54:04.966Z,2.70
2023-03-04T14:56:32.718Z,3.67
2023-03-04T14:59:00.450Z,1.98
2023-03-04T15:01:28.253Z,1.23
2023-03-04T15:03:56.287Z,2.83
2023-03-04T15:06:24.213Z,4.50
2023-03-04T15:08:53.210Z,4.03
2023-03-04T15:11:21.856Z,8.40
2023-03-04T15:13:49.848Z,13.10
2023-03-04T15:16:17.800Z,8.52
2023-03-04T15:18:45.663Z,11.90
2023-03-04T15:21:13.460Z,8.07
2023-03-04T15:23:41.246Z,9.40
2023-03-04T15:26:08.984Z,6.55
2023-03-04T15:28:36.726Z,6.10
2023-03-04T15:31:04.615Z,7.80
2023-03-04T15:33:32.618Z,8.20
2023-03-04T15:36:00.487Z,4.22
2023-03-04T15:38:28.351Z,9.90
2023-03-04T15:40:56.547Z,4.65
2023-03-04T15:43:24.320Z,8.45
2023-03-04T15:45:52.103Z,7.72
2023-03-04T15:48:20.084Z,6.78
2023-03-04T15:50:47.835Z,5.15
2023-03-04T15:53:15.812Z,5.72
2023-03-04T15:55:43.583Z,2.75
2023-03-04T15:58:11.475Z,6.55
2023-03-04T16:00:39.222Z,5.18
2023-03-04T16:03:06.992Z,6.72
2023-03-04T16:05:34.975Z,7.03
2023-03-04T16:08:02.720Z,9.30
2023-03-04T16:10:30.872Z,3.83
2023-03-04T16:12:58.687Z,4.07
2023-03-04T16:15:26.519Z,7.03
2023-03-04T16:17:54.324Z,3.25
2023-03-04T16:20:22.393Z,4.82
2023-03-04T16:22:50.176Z,3.90
2023-03-04T16:25:18.014Z,5.90
2023-03-04T16:27:45.814Z,3.90
2023-03-04T16:30:13.613Z,5.25
2023-03-04T16:32:41.600Z,5.18
2023-03-04T16:35:09.372Z,7.57
2023-03-04T16:37:37.189Z,4.93
2023-03-04T16:40:05.068Z,2.97
2023-03-04T16:42:32.845Z,5.72
2023-03-04T16:45:01.057Z,5.78
2023-03-04T16:47:28.977Z,4.53
2023-03-04T16:49:57.695Z,2.95
2023-03-04T16:52:25.576Z,4.22
2023-03-04T16:54:53.379Z,6.45
2023-03-04T16:57:21.188Z,5.10
2023-03-04T16:59:48.989Z,6.13
2023-03-04T17:02:16.716Z,2.88
2023-03-04T17:04:44.690Z,4.43
2023-03-04T17:07:12.503Z,2.60
2023-03-04T17:09:40.295Z,2.90
2023-03-04T17:12:08.019Z,3.30
2023-03-04T17:14:42.700Z,3.10
2023-03-04T17:17:11.739Z,4.72
2023-03-04T17:19:42.081Z,3.13
2023-03-04T17:22:09.813Z,3.03
2023-03-04T17:24:40.007Z,2.70
2023-03-04T17:27:10.172Z,3.15
2023-03-04T17:29:45.788Z,4.32
2023-03-04T17:32:17.300Z,2.40
2023-03-04T17:34:49.185Z,2.97
2023-03-04T17:37:26.634Z,3.97
2023-03-04T17:40:00.177Z,2.92
2023-03-04T18:20:26.318Z,4.05
2023-03-04T18:22:54.137Z,2.50
2023-03-04T18:25:21.995Z,2.05
2023-03-04T18:27:49.787Z,3.05
2023-03-04T18:30:17.811Z,1.63
2023-03-04T18:32:51.817Z,2.05
2023-03-04T18:35:20.262Z,3.55
2023-03-04T18:37:48.101Z,3.25
2023-03-04T18:40:15.854Z,1.92
2023-03-04T18:42:44.287Z,2.65
2023-03-04T18:45:12.070Z,1.90
2023-03-04T18:47:39.865Z,2.65
2023-03-04T18:50:07.638Z,2.60
2023-03-04T18:52:36.000Z,2.92
2023-03-04T18:55:03.734Z,2.70
2023-03-04T18:57:31.692Z,4.85
2023-03-04T18:59:59.997Z,2.28
2023-03-04T19:02:27.969Z,2.97
2023-03-04T19:04:55.699Z,2.75
2023-03-04T19:07:23.852Z,2.25
2023-03-04T19:09:51.648Z,2.05
2023-03-04T19:12:19.388Z,3.10
2023-03-04T19:14:47.262Z,2.25
2023-03-04T19:17:15.306Z,2.05
2023-03-04T19:19:43.108Z,2.45
2023-03-04T19:22:10.874Z,2.72
2023-03-04T19:24:38.666Z,2.78
2023-03-04T19:27:06.509Z,1.98
2023-03-04T19:29:34.464Z,3.20
2023-03-04T19:32:02.343Z,2.30
2023-03-04T19:34:30.152Z,3.65
2023-03-04T19:36:57.888Z,3.95
2023-03-04T19:39:25.735Z,3.10
2023-03-04T19:41:53.490Z,4.18
2023-03-04T19:44:21.315Z,2.75
2023-03-04T19:46:49.112Z,3.40
2023-03-04T19:49:16.930Z,3.17
2023-03-04T19:51:44.756Z,2.78
2023-03-04T19:54:12.515Z,1.85
2023-03-04T19:56:40.270Z,1.95
2023-03-04T19:59:08.047Z,3.92
2023-03-04T20:01:35.785Z,1.88
2023-03-04T20:04:03.639Z,3.50
2023-03-04T20:06:31.388Z,2.33
2023-03-04T20:08:59.206Z,2.53
2023-03-04T20:11:26.997Z,1.80
2023-03-04T20:13:55.112Z,2.90
2023-03-04T20:16:22.868Z,2.08
2023-03-04T20:18:50.784Z,1.95
2023-03-04T20:21:18.977Z,2.22
2023-03-04T20:23:46.772Z,2.13
2023-03-04T20:26:14.643Z,1.52
2023-03-04T20:28:42.428Z,1.70
2023-03-04T20:31:10.432Z,2.38
2023-03-04T20:33:38.195Z,1.48
2023-03-04T20:36:05.961Z,2.13
2023-03-04T20:38:33.754Z,2.55
2023-03-04T20:41:02.024Z,2.40
2023-03-04T20:43:31.229Z,2.92
2023-03-04T20:45:59.039Z,2.33
2023-03-04T20:48:27.122Z,2.92
2023-03-04T20:50:54.882Z,1.50
2023-03-04T20:53:22.645Z,1.75
2023-03-04T20:55:50.437Z,2.38
2023-03-04T20:58:18.227Z,2.28
2023-03-04T21:00:48.489Z,1.70
2023-03-04T21:03:16.421Z,2.30
2023-03-04T21:05:44.178Z,1.40
2023-03-04T21:08:13.463Z,2.25
2023-03-04T21:10:41.208Z,1.90
2023-03-04T21:13:11.287Z,4.82
2023-03-04T21:15:39.103Z,1.95
2023-03-04T21:18:06.914Z,1.60
2023-03-04T21:20:34.752Z,2.17
2023-03-04T21:23:02.466Z,4.28
2023-03-04T21:25:30.372Z,2.53
2023-03-04T21:27:58.177Z,1.83
2023-03-04T21:30:25.967Z,2.55
2023-03-04T21:32:54.141Z,2.03
2023-03-04T21:35:22.275Z,2.35
2023-03-04T21:37:51.427Z,2.28
2023-03-04T21:40:19.280Z,2.88
2023-03-04T21:42:47.134Z,2.97
2023-03-04T21:45:15.059Z,2.78
2023-03-04T21:47:42.812Z,2.13
2023-03-04T21:50:10.752Z,1.65
2023-03-04T21:52:38.519Z,2.97
2023-03-04T21:55:06.438Z,2.05
2023-03-04T21:57:34.355Z,2.10
2023-03-04T22:00:02.476Z,2.58
2023-03-04T22:02:31.113Z,3.15
2023-03-04T22:04:59.015Z,2.30
2023-03-04T22:07:26.798Z,2.58
2023-03-04T22:09:55.638Z,2.03
2023-03-04T22:12:23.484Z,2.42
2023-03-04T22:14:51.308Z,3.60
2023-03-04T22:17:19.099Z,1.70
2023-03-04T22:19:46.946Z,3.00
2023-03-04T22:22:17.981Z,2.47
2023-03-04T22:24:45.843Z,1.90
2023-03-04T22:27:13.617Z,2.47
2023-03-04T22:29:41.578Z,1.42
2023-03-04T22:32:09.355Z,2.25
2023-03-04T22:34:37.363Z,3.08
2023-03-04T22:37:05.081Z,1.80
2023-03-04T22:39:32.820Z,1.95
2023-03-04T22:42:00.715Z,2.25
2023-03-04T22:44:28.490Z,1.60
2023-03-04T22:46:56.222Z,1.80
2023-03-04T22:49:24.104Z,2.70
2023-03-04T22:51:51.795Z,1.77
2023-03-04T22:54:19.795Z,2.22
2023-03-04T22:56:47.556Z,1.50
2023-03-04T22:59:15.503Z,2.20
2023-03-04T23:01:43.298Z,2.50
2023-03-04T23:04:11.298Z,1.98
2023-03-04T23:06:39.065Z,2.17
2023-03-04T23:09:06.938Z,2.42
2023-03-04T23:11:35.398Z,2.63
2023-03-04T23:14:06.470Z,1.95
2023-03-04T23:16:37.194Z,2.17
2023-03-04T23:19:05.056Z,3.42
2023-03-04T23:21:34.007Z,1.92
2023-03-04T23:24:02.387Z,3.40
2023-03-04T23:26:30.570Z,2.28
2023-03-04T23:29:01.320Z,2.58
2023-03-04T23:31:29.092Z,2.42
2023-03-04T23:33:57.577Z,1.33
2023-03-04T23:36:25.447Z,2.53
2023-03-04T23:38:53.261Z,1.70
2023-03-04T23:41:21.292Z,1.80
2023-03-04T23:43:49.053Z,1.83
2023-03-04T23:46:16.812Z,3.08
2023-03-04T23:48:46.344Z,1.83
2023-03-04T23:51:14.251Z,1.33
2023-03-04T23:53:41.952Z,2.47
2023-03-04T23:56:09.692Z,1.95
2023-03-04T23:58:37.689Z,1.92
